sensor_id;sensor_type;location;lat;lon;timestamp;P1;durP1;ratioP1;P2;durP2;ratioP2
72647;SDS011;60693;50.002;8.644;2024-03-06T00:02:34;7.88;;;2.95;;
72647;SDS011;60693;50.002;8.644;2024-03-06T00:05:19;9.07;;;2.20;;
72647;SDS011;60693;50.002;8.644;2024-03-06T00:08:04;7.50;;;2.47;;
72647;SDS011;60693;50.002;8.644;2024-03-06T00:10:48;8.63;;;2.72;;
72647;SDS011;60693;50.002;8.644;2024-03-06T00:13:33;8.48;;;2.65;;
72647;SDS011;60693;50.002;8.644;2024-03-06T00:16:17;7.28;;;2.40;;
72647;SDS011;60693;50.002;8.644;2024-03-06T00:19:02;9.83;;;2.93;;
72647;SDS011;60693;50.002;8.644;2024-03-06T00:21:46;8.45;;;2.53;;
72647;SDS011;60693;50.002;8.644;2024-03-06T00:24:30;10.43;;;2.92;;
72647;SDS011;60693;50.002;8.644;2024-03-06T00:27:16;8.02;;;2.72;;
72647;SDS011;60693;50.002;8.644;2024-03-06T00:30:01;9.43;;;2.90;;
72647;SDS011;60693;50.002;8.644;2024-03-06T00:32:45;7.20;;;2.47;;
72647;SDS011;60693;50.002;8.644;2024-03-06T00:35:30;9.70;;;2.92;;
72647;SDS011;60693;50.002;8.644;2024-03-06T00:38:14;9.55;;;2.60;;
72647;SDS011;60693;50.002;8.644;2024-03-06T00:41:01;10.18;;;2.95;;
72647;SDS011;60693;50.002;8.644;2024-03-06T00:43:45;9.85;;;2.25;;
72647;SDS011;60693;50.002;8.644;2024-03-06T00:46:30;8.83;;;2.53;;
72647;SDS011;60693;50.002;8.644;2024-03-06T00:49:14;6.40;;;1.80;;
72647;SDS011;60693;50.002;8.644;2024-03-06T00:51:59;7.13;;;2.42;;
72647;SDS011;60693;50.002;8.644;2024-03-06T00:54:43;8.48;;;2.35;;
72647;SDS011;60693;50.002;8.644;2024-03-06T00:57:27;7.25;;;2.15;;
72647;SDS011;60693;50.002;8.644;2024-03-06T01:00:12;9.53;;;3.20;;
72647;SDS011;60693;50.002;8.644;2024-03-06T01:02:57;8.00;;;2.13;;
72647;SDS011;60693;50.002;8.644;2024-03-06T01:05:41;7.85;;;2.70;;
72647;SDS011;60693;50.002;8.644;2024-03-06T01:08:26;9.23;;;3.38;;
72647;SDS011;60693;50.002;8.644;2024-03-06T01:11:11;8.02;;;2.25;;
72647;SDS011;60693;50.002;8.644;2024-03-06T01:13:58;8.10;;;2.87;;
72647;SDS011;60693;50.002;8.644;2024-03-06T01:16:43;7.53;;;2.90;;
72647;SDS011;60693;50.002;8.644;2024-03-06T01:19:27;8.13;;;2.72;;
72647;SDS011;60693;50.002;8.644;2024-03-06T01:22:12;10.10;;;2.45;;
72647;SDS011;60693;50.002;8.644;2024-03-06T01:24:57;12.02;;;3.72;;
72647;SDS011;60693;50.002;8.644;2024-03-06T01:27:41;10.33;;;3.87;;
72647;SDS011;60693;50.002;8.644;2024-03-06T01:30:26;7.68;;;3.08;;
72647;SDS011;60693;50.002;8.644;2024-03-06T01:33:10;8.25;;;2.58;;
72647;SDS011;60693;50.002;8.644;2024-03-06T01:35:54;10.07;;;3.40;;
72647;SDS011;60693;50.002;8.644;2024-03-06T01:38:38;8.07;;;3.13;;
72647;SDS011;60693;50.002;8.644;2024-03-06T01:41:22;13.90;;;3.53;;
72647;SDS011;60693;50.002;8.644;2024-03-06T01:44:07;9.13;;;3.22;;
72647;SDS011;60693;50.002;8.644;2024-03-06T01:46:51;10.73;;;2.80;;
72647;SDS011;60693;50.002;8.644;2024-03-06T01:49:36;7.60;;;2.35;;
72647;SDS011;60693;50.002;8.644;2024-03-06T01:52:20;7.85;;;2.63;;
72647;SDS011;60693;50.002;8.644;2024-03-06T01:55:06;8.40;;;2.70;;
72647;SDS011;60693;50.002;8.644;2024-03-06T01:57:52;7.82;;;2.72;;
72647;SDS011;60693;50.002;8.644;2024-03-06T02:00:36;7.30;;;2.60;;
72647;SDS011;60693;50.002;8.644;2024-03-06T02:03:21;9.48;;;2.88;;
72647;SDS011;60693;50.002;8.644;2024-03-06T02:06:05;10.52;;;2.63;;
72647;SDS011;60693;50.002;8.644;2024-03-06T02:08:50;10.80;;;3.10;;
72647;SDS011;60693;50.002;8.644;2024-03-06T02:11:36;9.63;;;2.17;;
72647;SDS011;60693;50.002;8.644;2024-03-06T02:14:20;10.25;;;2.65;;
72647;SDS011;60693;50.002;8.644;2024-03-06T02:17:04;7.05;;;2.22;;
72647;SDS011;60693;50.002;8.644;2024-03-06T02:19:49;9.35;;;2.17;;
72647;SDS011;60693;50.002;8.644;2024-03-06T02:22:33;9.60;;;2.97;;
72647;SDS011;60693;50.002;8.644;2024-03-06T02:25:18;10.77;;;2.58;;
72647;SDS011;60693;50.002;8.644;2024-03-06T02:28:03;9.93;;;3.05;;
72647;SDS011;60693;50.002;8.644;2024-03-06T02:30:50;10.77;;;3.85;;
72647;SDS011;60693;50.002;8.644;2024-03-06T02:33:34;10.73;;;2.53;;
72647;SDS011;60693;50.002;8.644;2024-03-06T02:36:19;9.33;;;3.20;;
72647;SDS011;60693;50.002;8.644;2024-03-06T02:39:03;12.55;;;3.15;;
72647;SDS011;60693;50.002;8.644;2024-03-06T02:41:52;15.15;;;2.97;;
72647;SDS011;60693;50.002;8.644;2024-03-06T02:44:36;8.20;;;3.17;;
72647;SDS011;60693;50.002;8.644;2024-03-06T02:47:21;8.10;;;2.40;;
72647;SDS011;60693;50.002;8.644;2024-03-06T02:50:05;10.13;;;2.57;;
72647;SDS011;60693;50.002;8.644;2024-03-06T02:52:51;9.35;;;2.65;;
72647;SDS011;60693;50.002;8.644;2024-03-06T02:55:37;6.70;;;2.55;;
72647;SDS011;60693;50.002;8.644;2024-03-06T02:58:21;9.00;;;2.90;;
72647;SDS011;60693;50.002;8.644;2024-03-06T03:01:06;9.60;;;3.28;;
72647;SDS011;60693;50.002;8.644;2024-03-06T03:03:53;8.80;;;2.73;;
72647;SDS011;60693;50.002;8.644;2024-03-06T03:06:37;8.65;;;2.78;;
72647;SDS011;60693;50.002;8.644;2024-03-06T03:09:22;8.68;;;2.72;;
72647;SDS011;60693;50.002;8.644;2024-03-06T03:12:07;9.00;;;2.92;;
72647;SDS011;60693;50.002;8.644;2024-03-06T03:14:51;7.65;;;2.33;;
72647;SDS011;60693;50.002;8.644;2024-03-06T03:17:35;8.87;;;3.07;;
72647;SDS011;60693;50.002;8.644;2024-03-06T03:20:20;8.48;;;2.25;;
72647;SDS011;60693;50.002;8.644;2024-03-06T03:23:04;9.52;;;2.58;;
72647;SDS011;60693;50.002;8.644;2024-03-06T03:25:50;9.32;;;2.78;;
72647;SDS011;60693;50.002;8.644;2024-03-06T03:28:34;8.82;;;3.10;;
72647;SDS011;60693;50.002;8.644;2024-03-06T03:31:19;8.07;;;2.30;;
72647;SDS011;60693;50.002;8.644;2024-03-06T03:34:03;7.45;;;2.35;;
72647;SDS011;60693;50.002;8.644;2024-03-06T03:36:47;9.27;;;2.65;;
72647;SDS011;60693;50.002;8.644;2024-03-06T03:39:32;7.32;;;2.75;;
72647;SDS011;60693;50.002;8.644;2024-03-06T03:42:16;7.28;;;2.55;;
72647;SDS011;60693;50.002;8.644;2024-03-06T03:45:00;11.10;;;3.13;;
72647;SDS011;60693;50.002;8.644;2024-03-06T03:47:46;7.75;;;3.00;;
72647;SDS011;60693;50.002;8.644;2024-03-06T03:50:31;9.30;;;3.38;;
72647;SDS011;60693;50.002;8.644;2024-03-06T03:53:15;10.60;;;3.13;;
72647;SDS011;60693;50.002;8.644;2024-03-06T03:55:59;7.85;;;2.47;;
72647;SDS011;60693;50.002;8.644;2024-03-06T03:58:44;11.27;;;3.17;;
72647;SDS011;60693;50.002;8.644;2024-03-06T04:01:28;8.48;;;3.00;;
72647;SDS011;60693;50.002;8.644;2024-03-06T04:04:13;8.60;;;2.97;;
72647;SDS011;60693;50.002;8.644;2024-03-06T04:06:57;8.45;;;2.47;;
72647;SDS011;60693;50.002;8.644;2024-03-06T04:09:43;10.20;;;3.20;;
72647;SDS011;60693;50.002;8.644;2024-03-06T04:12:27;9.77;;;3.03;;
72647;SDS011;60693;50.002;8.644;2024-03-06T04:15:12;10.93;;;3.13;;
72647;SDS011;60693;50.002;8.644;2024-03-06T04:17:56;10.85;;;3.85;;
72647;SDS011;60693;50.002;8.644;2024-03-06T04:20:40;7.65;;;2.58;;
72647;SDS011;60693;50.002;8.644;2024-03-06T04:23:25;12.18;;;3.30;;
72647;SDS011;60693;50.002;8.644;2024-03-06T04:26:11;9.63;;;3.10;;
72647;SDS011;60693;50.002;8.644;2024-03-06T04:28:56;8.52;;;3.15;;
72647;SDS011;60693;50.002;8.644;2024-03-06T04:31:40;13.35;;;4.03;;
72647;SDS011;60693;50.002;8.644;2024-03-06T04:34:24;9.73;;;2.88;;
72647;SDS011;60693;50.002;8.644;2024-03-06T04:37:08;9.77;;;3.28;;
72647;SDS011;60693;50.002;8.644;2024-03-06T04:39:53;8.33;;;2.40;;
72647;SDS011;60693;50.002;8.644;2024-03-06T04:42:37;10.35;;;3.45;;
72647;SDS011;60693;50.002;8.644;2024-03-06T04:45:21;8.57;;;3.15;;
72647;SDS011;60693;50.002;8.644;2024-03-06T04:48:06;9.70;;;4.00;;
72647;SDS011;60693;50.002;8.644;2024-03-06T04:50:51;10.18;;;3.25;;
72647;SDS011;60693;50.002;8.644;2024-03-06T04:53:35;12.63;;;4.33;;
72647;SDS011;60693;50.002;8.644;2024-03-06T04:56:19;7.40;;;3.15;;
72647;SDS011;60693;50.002;8.644;2024-03-06T04:59:04;12.25;;;3.42;;
72647;SDS011;60693;50.002;8.644;2024-03-06T05:01:48;11.30;;;3.85;;
72647;SDS011;60693;50.002;8.644;2024-03-06T05:04:33;9.73;;;3.20;;
72647;SDS011;60693;50.002;8.644;2024-03-06T05:07:17;9.37;;;3.50;;
72647;SDS011;60693;50.002;8.644;2024-03-06T05:10:02;9.82;;;3.20;;
72647;SDS011;60693;50.002;8.644;2024-03-06T05:12:46;8.30;;;3.60;;
72647;SDS011;60693;50.002;8.644;2024-03-06T05:15:30;8.63;;;3.30;;
72647;SDS011;60693;50.002;8.644;2024-03-06T05:18:14;8.48;;;2.60;;
72647;SDS011;60693;50.002;8.644;2024-03-06T05:20:59;10.27;;;3.07;;
72647;SDS011;60693;50.002;8.644;2024-03-06T05:23:43;9.38;;;3.10;;
72647;SDS011;60693;50.002;8.644;2024-03-06T05:26:27;12.15;;;4.10;;
72647;SDS011;60693;50.002;8.644;2024-03-06T05:29:11;7.88;;;2.72;;
72647;SDS011;60693;50.002;8.644;2024-03-06T05:31:56;12.50;;;4.47;;
72647;SDS011;60693;50.002;8.644;2024-03-06T05:34:40;11.67;;;2.97;;
72647;SDS011;60693;50.002;8.644;2024-03-06T05:37:24;9.65;;;3.40;;
72647;SDS011;60693;50.002;8.644;2024-03-06T05:40:08;8.48;;;2.92;;
72647;SDS011;60693;50.002;8.644;2024-03-06T05:42:53;10.63;;;3.20;;
72647;SDS011;60693;50.002;8.644;2024-03-06T05:45:37;16.65;;;3.53;;
72647;SDS011;60693;50.002;8.644;2024-03-06T05:48:22;9.40;;;3.70;;
72647;SDS011;60693;50.002;8.644;2024-03-06T05:51:08;9.80;;;2.63;;
72647;SDS011;60693;50.002;8.644;2024-03-06T05:53:52;10.10;;;3.35;;
72647;SDS011;60693;50.002;8.644;2024-03-06T05:56:36;8.48;;;2.30;;
72647;SDS011;60693;50.002;8.644;2024-03-06T05:59:22;10.05;;;4.55;;
72647;SDS011;60693;50.002;8.644;2024-03-06T06:02:08;12.70;;;4.57;;
72647;SDS011;60693;50.002;8.644;2024-03-06T06:04:52;12.68;;;3.80;;
72647;SDS011;60693;50.002;8.644;2024-03-06T06:07:36;10.68;;;2.92;;
72647;SDS011;60693;50.002;8.644;2024-03-06T06:10:21;8.05;;;2.72;;
72647;SDS011;60693;50.002;8.644;2024-03-06T06:13:06;9.38;;;3.15;;
72647;SDS011;60693;50.002;8.644;2024-03-06T06:15:50;9.83;;;2.93;;
72647;SDS011;60693;50.002;8.644;2024-03-06T06:18:34;7.93;;;2.53;;
72647;SDS011;60693;50.002;8.644;2024-03-06T06:21:19;13.73;;;4.25;;
72647;SDS011;60693;50.002;8.644;2024-03-06T06:24:03;36.55;;;11.75;;
72647;SDS011;60693;50.002;8.644;2024-03-06T06:26:48;14.20;;;4.20;;
72647;SDS011;60693;50.002;8.644;2024-03-06T06:29:32;9.50;;;2.80;;
72647;SDS011;60693;50.002;8.644;2024-03-06T06:32:17;8.20;;;2.78;;
72647;SDS011;60693;50.002;8.644;2024-03-06T06:35:02;8.52;;;2.90;;
72647;SDS011;60693;50.002;8.644;2024-03-06T06:37:47;8.40;;;2.83;;
72647;SDS011;60693;50.002;8.644;2024-03-06T06:40:32;15.10;;;4.90;;
72647;SDS011;60693;50.002;8.644;2024-03-06T06:43:16;14.47;;;4.93;;
72647;SDS011;60693;50.002;8.644;2024-03-06T06:46:00;11.48;;;3.88;;
72647;SDS011;60693;50.002;8.644;2024-03-06T06:48:45;10.40;;;3.75;;
72647;SDS011;60693;50.002;8.644;2024-03-06T06:51:29;13.27;;;4.78;;
72647;SDS011;60693;50.002;8.644;2024-03-06T06:54:14;11.35;;;4.03;;
72647;SDS011;60693;50.002;8.644;2024-03-06T06:56:58;14.20;;;4.97;;
72647;SDS011;60693;50.002;8.644;2024-03-06T06:59:42;9.40;;;3.55;;
72647;SDS011;60693;50.002;8.644;2024-03-06T07:02:26;9.15;;;2.92;;
72647;SDS011;60693;50.002;8.644;2024-03-06T07:05:12;9.38;;;2.97;;
72647;SDS011;60693;50.002;8.644;2024-03-06T07:07:56;12.50;;;3.97;;
72647;SDS011;60693;50.002;8.644;2024-03-06T07:10:40;17.77;;;4.27;;
72647;SDS011;60693;50.002;8.644;2024-03-06T07:13:25;14.77;;;3.75;;
72647;SDS011;60693;50.002;8.644;2024-03-06T07:16:10;10.48;;;3.85;;
72647;SDS011;60693;50.002;8.644;2024-03-06T07:18:54;11.13;;;4.05;;
72647;SDS011;60693;50.002;8.644;2024-03-06T07:21:38;9.85;;;2.95;;
72647;SDS011;60693;50.002;8.644;2024-03-06T07:24:23;10.17;;;4.57;;
72647;SDS011;60693;50.002;8.644;2024-03-06T07:27:08;10.35;;;3.13;;
72647;SDS011;60693;50.002;8.644;2024-03-06T07:29:53;9.00;;;3.38;;
72647;SDS011;60693;50.002;8.644;2024-03-06T07:32:37;10.05;;;3.88;;
72647;SDS011;60693;50.002;8.644;2024-03-06T07:35:21;11.63;;;3.45;;
72647;SDS011;60693;50.002;8.644;2024-03-06T07:38:06;13.10;;;3.70;;
72647;SDS011;60693;50.002;8.644;2024-03-06T07:40:50;7.93;;;2.60;;
72647;SDS011;60693;50.002;8.644;2024-03-06T07:43:34;10.10;;;3.30;;
72647;SDS011;60693;50.002;8.644;2024-03-06T07:46:19;10.80;;;3.40;;
72647;SDS011;60693;50.002;8.644;2024-03-06T07:49:03;8.98;;;3.22;;
72647;SDS011;60693;50.002;8.644;2024-03-06T07:51:48;8.97;;;3.10;;
72647;SDS011;60693;50.002;8.644;2024-03-06T07:54:33;7.90;;;2.65;;
72647;SDS011;60693;50.002;8.644;2024-03-06T07:57:17;10.20;;;3.25;;
72647;SDS011;60693;50.002;8.644;2024-03-06T08:00:02;9.13;;;3.38;;
72647;SDS011;60693;50.002;8.644;2024-03-06T08:02:52;10.77;;;3.58;;
72647;SDS011;60693;50.002;8.644;2024-03-06T08:05:36;12.00;;;2.77;;
72647;SDS011;60693;50.002;8.644;2024-03-06T08:08:21;9.98;;;3.63;;
72647;SDS011;60693;50.002;8.644;2024-03-06T08:11:05;15.55;;;4.03;;
72647;SDS011;60693;50.002;8.644;2024-03-06T08:13:49;10.57;;;3.72;;
72647;SDS011;60693;50.002;8.644;2024-03-06T08:16:34;11.82;;;3.95;;
72647;SDS011;60693;50.002;8.644;2024-03-06T08:19:18;8.00;;;2.90;;
72647;SDS011;60693;50.002;8.644;2024-03-06T08:22:03;8.88;;;3.35;;
72647;SDS011;60693;50.002;8.644;2024-03-06T08:24:47;10.55;;;3.85;;
72647;SDS011;60693;50.002;8.644;2024-03-06T08:27:33;8.68;;;3.50;;
72647;SDS011;60693;50.002;8.644;2024-03-06T08:30:17;8.73;;;3.28;;
72647;SDS011;60693;50.002;8.644;2024-03-06T08:33:02;12.00;;;3.40;;
72647;SDS011;60693;50.002;8.644;2024-03-06T08:35:46;10.90;;;3.85;;
72647;SDS011;60693;50.002;8.644;2024-03-06T08:38:30;13.07;;;3.58;;
72647;SDS011;60693;50.002;8.644;2024-03-06T08:41:15;11.48;;;3.90;;
72647;SDS011;60693;50.002;8.644;2024-03-06T08:43:59;10.38;;;4.00;;
72647;SDS011;60693;50.002;8.644;2024-03-06T08:46:43;9.80;;;3.23;;
72647;SDS011;60693;50.002;8.644;2024-03-06T08:49:28;8.55;;;3.00;;
72647;SDS011;60693;50.002;8.644;2024-03-06T08:52:12;9.10;;;3.17;;
72647;SDS011;60693;50.002;8.644;2024-03-06T08:54:57;11.93;;;3.60;;
72647;SDS011;60693;50.002;8.644;2024-03-06T08:57:41;11.90;;;3.10;;
72647;SDS011;60693;50.002;8.644;2024-03-06T09:00:26;11.87;;;4.77;;
72647;SDS011;60693;50.002;8.644;2024-03-06T09:03:10;9.13;;;3.85;;
72647;SDS011;60693;50.002;8.644;2024-03-06T09:05:58;11.10;;;4.28;;
72647;SDS011;60693;50.002;8.644;2024-03-06T09:08:43;11.50;;;4.38;;
72647;SDS011;60693;50.002;8.644;2024-03-06T09:11:27;13.85;;;5.57;;
72647;SDS011;60693;50.002;8.644;2024-03-06T09:14:11;18.13;;;7.10;;
72647;SDS011;60693;50.002;8.644;2024-03-06T09:16:56;12.82;;;4.65;;
72647;SDS011;60693;50.002;8.644;2024-03-06T09:19:40;12.95;;;5.25;;
72647;SDS011;60693;50.002;8.644;2024-03-06T09:22:25;16.90;;;5.50;;
72647;SDS011;60693;50.002;8.644;2024-03-06T09:25:09;13.13;;;4.82;;
72647;SDS011;60693;50.002;8.644;2024-03-06T09:27:56;16.20;;;4.97;;
72647;SDS011;60693;50.002;8.644;2024-03-06T09:30:40;14.25;;;5.68;;
72647;SDS011;60693;50.002;8.644;2024-03-06T09:33:25;19.35;;;5.95;;
72647;SDS011;60693;50.002;8.644;2024-03-06T09:36:12;12.18;;;4.80;;
72647;SDS011;60693;50.002;8.644;2024-03-06T09:38:57;15.55;;;5.57;;
72647;SDS011;60693;50.002;8.644;2024-03-06T09:41:41;13.03;;;4.87;;
72647;SDS011;60693;50.002;8.644;2024-03-06T09:44:26;16.33;;;5.18;;
72647;SDS011;60693;50.002;8.644;2024-03-06T09:47:12;13.77;;;5.32;;
72647;SDS011;60693;50.002;8.644;2024-03-06T09:49:59;13.95;;;5.30;;
72647;SDS011;60693;50.002;8.644;2024-03-06T09:52:42;18.27;;;6.65;;
72647;SDS011;60693;50.002;8.644;2024-03-06T09:55:30;16.90;;;6.87;;
72647;SDS011;60693;50.002;8.644;2024-03-06T09:58:15;18.65;;;5.18;;
72647;SDS011;60693;50.002;8.644;2024-03-06T10:00:59;16.77;;;6.70;;
72647;SDS011;60693;50.002;8.644;2024-03-06T10:03:44;16.52;;;5.75;;
72647;SDS011;60693;50.002;8.644;2024-03-06T10:06:30;18.55;;;5.90;;
72647;SDS011;60693;50.002;8.644;2024-03-06T10:09:16;19.10;;;5.23;;
72647;SDS011;60693;50.002;8.644;2024-03-06T10:12:01;16.17;;;5.43;;
72647;SDS011;60693;50.002;8.644;2024-03-06T10:14:49;13.98;;;5.15;;
72647;SDS011;60693;50.002;8.644;2024-03-06T10:17:35;16.17;;;5.15;;
72647;SDS011;60693;50.002;8.644;2024-03-06T10:20:20;14.35;;;4.43;;
72647;SDS011;60693;50.002;8.644;2024-03-06T10:23:11;15.40;;;5.87;;
72647;SDS011;60693;50.002;8.644;2024-03-06T10:25:56;15.30;;;4.75;;
72647;SDS011;60693;50.002;8.644;2024-03-06T10:28:44;17.98;;;5.70;;
72647;SDS011;60693;50.002;8.644;2024-03-06T10:31:28;17.25;;;5.65;;
72647;SDS011;60693;50.002;8.644;2024-03-06T10:34:13;15.00;;;4.68;;
72647;SDS011;60693;50.002;8.644;2024-03-06T10:36:57;18.03;;;5.20;;
72647;SDS011;60693;50.002;8.644;2024-03-06T10:39:43;14.45;;;4.78;;
72647;SDS011;60693;50.002;8.644;2024-03-06T10:42:28;15.68;;;4.32;;
72647;SDS011;60693;50.002;8.644;2024-03-06T10:45:13;13.30;;;5.13;;
72647;SDS011;60693;50.002;8.644;2024-03-06T10:47:59;17.27;;;5.22;;
72647;SDS011;60693;50.002;8.644;2024-03-06T10:50:45;13.00;;;4.63;;
72647;SDS011;60693;50.002;8.644;2024-03-06T10:53:30;17.33;;;4.50;;
72647;SDS011;60693;50.002;8.644;2024-03-06T10:56:16;11.88;;;3.63;;
72647;SDS011;60693;50.002;8.644;2024-03-06T10:59:01;15.38;;;4.45;;
72647;SDS011;60693;50.002;8.644;2024-03-06T11:01:46;13.93;;;4.45;;
72647;SDS011;60693;50.002;8.644;2024-03-06T11:04:31;12.37;;;4.07;;
72647;SDS011;60693;50.002;8.644;2024-03-06T11:07:19;11.80;;;3.45;;
72647;SDS011;60693;50.002;8.644;2024-03-06T11:10:03;15.48;;;5.68;;
72647;SDS011;60693;50.002;8.644;2024-03-06T11:12:48;14.05;;;4.75;;
72647;SDS011;60693;50.002;8.644;2024-03-06T11:15:32;14.73;;;4.00;;
72647;SDS011;60693;50.002;8.644;2024-03-06T11:27:02;14.20;;;3.63;;
72647;SDS011;60693;50.002;8.644;2024-03-06T11:30:07;15.55;;;4.78;;
72647;SDS011;60693;50.002;8.644;2024-03-06T11:33:00;14.57;;;4.60;;
72647;SDS011;60693;50.002;8.644;2024-03-06T11:39:05;16.50;;;4.53;;
72647;SDS011;60693;50.002;8.644;2024-03-06T11:41:50;14.35;;;4.68;;
72647;SDS011;60693;50.002;8.644;2024-03-06T11:44:35;15.50;;;5.05;;
72647;SDS011;60693;50.002;8.644;2024-03-06T11:47:19;15.20;;;4.77;;
72647;SDS011;60693;50.002;8.644;2024-03-06T11:50:04;16.27;;;5.07;;
72647;SDS011;60693;50.002;8.644;2024-03-06T11:52:53;14.73;;;5.25;;
72647;SDS011;60693;50.002;8.644;2024-03-06T11:55:39;16.58;;;4.93;;
72647;SDS011;60693;50.002;8.644;2024-03-06T11:58:23;16.50;;;5.18;;
72647;SDS011;60693;50.002;8.644;2024-03-06T12:01:08;16.43;;;5.37;;
72647;SDS011;60693;50.002;8.644;2024-03-06T12:03:53;13.85;;;5.07;;
72647;SDS011;60693;50.002;8.644;2024-03-06T12:06:38;15.20;;;4.43;;
72647;SDS011;60693;50.002;8.644;2024-03-06T12:09:23;16.45;;;5.35;;
72647;SDS011;60693;50.002;8.644;2024-03-06T12:12:07;13.40;;;5.38;;
72647;SDS011;60693;50.002;8.644;2024-03-06T12:14:59;14.90;;;5.23;;
72647;SDS011;60693;50.002;8.644;2024-03-06T12:17:48;13.77;;;4.90;;
72647;SDS011;60693;50.002;8.644;2024-03-06T12:20:35;16.30;;;5.32;;
72647;SDS011;60693;50.002;8.644;2024-03-06T12:23:24;14.23;;;4.78;;
72647;SDS011;60693;50.002;8.644;2024-03-06T12:26:12;16.48;;;5.38;;
72647;SDS011;60693;50.002;8.644;2024-03-06T12:31:51;12.35;;;4.10;;
72647;SDS011;60693;50.002;8.644;2024-03-06T12:34:35;12.70;;;4.60;;
72647;SDS011;60693;50.002;8.644;2024-03-06T12:37:19;12.90;;;4.38;;
72647;SDS011;60693;50.002;8.644;2024-03-06T12:40:03;13.48;;;4.20;;
72647;SDS011;60693;50.002;8.644;2024-03-06T12:42:48;13.53;;;4.87;;
72647;SDS011;60693;50.002;8.644;2024-03-06T12:45:38;13.95;;;4.65;;
72647;SDS011;60693;50.002;8.644;2024-03-06T12:48:23;14.30;;;4.85;;
72647;SDS011;60693;50.002;8.644;2024-03-06T12:51:09;16.25;;;6.53;;
72647;SDS011;60693;50.002;8.644;2024-03-06T12:53:53;14.43;;;4.32;;
72647;SDS011;60693;50.002;8.644;2024-03-06T12:56:38;13.20;;;4.63;;
72647;SDS011;60693;50.002;8.644;2024-03-06T12:59:22;15.52;;;5.28;;
72647;SDS011;60693;50.002;8.644;2024-03-06T13:02:06;13.65;;;4.15;;
72647;SDS011;60693;50.002;8.644;2024-03-06T13:04:51;14.90;;;4.95;;
72647;SDS011;60693;50.002;8.644;2024-03-06T13:07:35;15.13;;;4.88;;
72647;SDS011;60693;50.002;8.644;2024-03-06T13:10:20;15.73;;;4.43;;
72647;SDS011;60693;50.002;8.644;2024-03-06T13:13:06;13.88;;;4.10;;
72647;SDS011;60693;50.002;8.644;2024-03-06T13:15:53;15.80;;;4.90;;
72647;SDS011;60693;50.002;8.644;2024-03-06T13:18:37;17.35;;;4.15;;
72647;SDS011;60693;50.002;8.644;2024-03-06T13:21:22;13.07;;;3.83;;
72647;SDS011;60693;50.002;8.644;2024-03-06T13:24:07;15.73;;;3.90;;
72647;SDS011;60693;50.002;8.644;2024-03-06T13:26:52;14.85;;;4.43;;
72647;SDS011;60693;50.002;8.644;2024-03-06T13:29:36;13.38;;;3.80;;
72647;SDS011;60693;50.002;8.644;2024-03-06T13:32:20;13.23;;;3.65;;
72647;SDS011;60693;50.002;8.644;2024-03-06T13:35:04;16.33;;;3.78;;
72647;SDS011;60693;50.002;8.644;2024-03-06T13:37:57;12.60;;;3.97;;
72647;SDS011;60693;50.002;8.644;2024-03-06T13:40:40;14.77;;;3.85;;
72647;SDS011;60693;50.002;8.644;2024-03-06T13:43:25;13.45;;;3.78;;
72647;SDS011;60693;50.002;8.644;2024-03-06T13:46:09;15.20;;;4.55;;
72647;SDS011;60693;50.002;8.644;2024-03-06T13:48:53;13.35;;;4.35;;
72647;SDS011;60693;50.002;8.644;2024-03-06T13:51:37;16.97;;;6.13;;
72647;SDS011;60693;50.002;8.644;2024-03-06T13:54:22;16.75;;;4.63;;
72647;SDS011;60693;50.002;8.644;2024-03-06T13:57:07;10.93;;;4.15;;
72647;SDS011;60693;50.002;8.644;2024-03-06T13:59:52;15.07;;;4.30;;
72647;SDS011;60693;50.002;8.644;2024-03-06T14:02:36;11.43;;;3.10;;
72647;SDS011;60693;50.002;8.644;2024-03-06T14:05:21;12.33;;;3.57;;
72647;SDS011;60693;50.002;8.644;2024-03-06T14:08:08;13.02;;;4.03;;
72647;SDS011;60693;50.002;8.644;2024-03-06T14:10:55;12.00;;;3.65;;
72647;SDS011;60693;50.002;8.644;2024-03-06T14:13:40;14.13;;;4.05;;
72647;SDS011;60693;50.002;8.644;2024-03-06T14:16:24;14.07;;;4.18;;
72647;SDS011;60693;50.002;8.644;2024-03-06T14:19:09;11.83;;;3.23;;
72647;SDS011;60693;50.002;8.644;2024-03-06T14:21:55;13.38;;;3.13;;
72647;SDS011;60693;50.002;8.644;2024-03-06T14:24:39;12.85;;;3.92;;
72647;SDS011;60693;50.002;8.644;2024-03-06T14:27:25;13.50;;;3.83;;
72647;SDS011;60693;50.002;8.644;2024-03-06T14:30:09;11.43;;;3.90;;
72647;SDS011;60693;50.002;8.644;2024-03-06T14:32:57;15.37;;;3.53;;
72647;SDS011;60693;50.002;8.644;2024-03-06T14:35:41;12.23;;;3.67;;
72647;SDS011;60693;50.002;8.644;2024-03-06T14:38:25;12.55;;;3.92;;
72647;SDS011;60693;50.002;8.644;2024-03-06T14:41:10;11.63;;;3.78;;
72647;SDS011;60693;50.002;8.644;2024-03-06T14:43:55;14.93;;;3.90;;
72647;SDS011;60693;50.002;8.644;2024-03-06T14:46:39;13.20;;;4.40;;
72647;SDS011;60693;50.002;8.644;2024-03-06T14:49:25;12.38;;;4.32;;
72647;SDS011;60693;50.002;8.644;2024-03-06T14:52:09;13.82;;;4.15;;
72647;SDS011;60693;50.002;8.644;2024-03-06T14:54:54;14.60;;;4.15;;
72647;SDS011;60693;50.002;8.644;2024-03-06T14:57:38;17.85;;;4.80;;
72647;SDS011;60693;50.002;8.644;2024-03-06T15:00:22;17.13;;;4.40;;
72647;SDS011;60693;50.002;8.644;2024-03-06T15:03:09;17.02;;;4.47;;
72647;SDS011;60693;50.002;8.644;2024-03-06T15:05:54;15.18;;;4.05;;
72647;SDS011;60693;50.002;8.644;2024-03-06T15:08:38;14.13;;;4.20;;
72647;SDS011;60693;50.002;8.644;2024-03-06T15:11:23;16.48;;;5.07;;
72647;SDS011;60693;50.002;8.644;2024-03-06T15:14:08;15.83;;;3.73;;
72647;SDS011;60693;50.002;8.644;2024-03-06T15:16:53;13.38;;;3.67;;
72647;SDS011;60693;50.002;8.644;2024-03-06T15:19:37;13.27;;;4.00;;
72647;SDS011;60693;50.002;8.644;2024-03-06T15:22:22;13.98;;;3.83;;
72647;SDS011;60693;50.002;8.644;2024-03-06T15:25:07;12.68;;;3.85;;
72647;SDS011;60693;50.002;8.644;2024-03-06T15:27:52;12.43;;;4.00;;
72647;SDS011;60693;50.002;8.644;2024-03-06T15:30:37;12.32;;;4.15;;
72647;SDS011;60693;50.002;8.644;2024-03-06T15:33:21;26.75;;;9.73;;
72647;SDS011;60693;50.002;8.644;2024-03-06T15:36:06;14.90;;;4.22;;
72647;SDS011;60693;50.002;8.644;2024-03-06T15:38:50;13.50;;;4.07;;
72647;SDS011;60693;50.002;8.644;2024-03-06T15:41:34;12.70;;;3.83;;
72647;SDS011;60693;50.002;8.644;2024-03-06T15:44:19;13.18;;;3.40;;
72647;SDS011;60693;50.002;8.644;2024-03-06T15:47:03;11.45;;;3.97;;
72647;SDS011;60693;50.002;8.644;2024-03-06T15:49:48;12.82;;;3.72;;
72647;SDS011;60693;50.002;8.644;2024-03-06T15:52:32;14.20;;;3.70;;
72647;SDS011;60693;50.002;8.644;2024-03-06T15:55:17;13.63;;;4.10;;
72647;SDS011;60693;50.002;8.644;2024-03-06T15:58:02;13.23;;;3.40;;
72647;SDS011;60693;50.002;8.644;2024-03-06T16:00:47;12.93;;;4.00;;
72647;SDS011;60693;50.002;8.644;2024-03-06T16:03:31;11.50;;;2.90;;
72647;SDS011;60693;50.002;8.644;2024-03-06T16:06:15;11.77;;;3.35;;
72647;SDS011;60693;50.002;8.644;2024-03-06T16:09:00;13.37;;;3.77;;
72647;SDS011;60693;50.002;8.644;2024-03-06T16:11:44;14.40;;;3.60;;
72647;SDS011;60693;50.002;8.644;2024-03-06T16:14:28;10.55;;;3.40;;
72647;SDS011;60693;50.002;8.644;2024-03-06T16:17:13;13.50;;;3.92;;
72647;SDS011;60693;50.002;8.644;2024-03-06T16:19:57;12.73;;;3.90;;
72647;SDS011;60693;50.002;8.644;2024-03-06T16:22:41;11.47;;;3.30;;
72647;SDS011;60693;50.002;8.644;2024-03-06T16:25:25;12.93;;;3.92;;
72647;SDS011;60693;50.002;8.644;2024-03-06T16:28:10;13.40;;;3.63;;
72647;SDS011;60693;50.002;8.644;2024-03-06T16:30:54;12.73;;;3.53;;
72647;SDS011;60693;50.002;8.644;2024-03-06T16:33:38;13.48;;;4.35;;
72647;SDS011;60693;50.002;8.644;2024-03-06T16:36:23;10.17;;;3.20;;
72647;SDS011;60693;50.002;8.644;2024-03-06T16:39:07;11.73;;;3.67;;